createdAt,value
2018-02-11T00:00:35.793Z,3.53
2018-02-11T00:01:35.758Z,3.50
2018-02-11T00:02:35.728Z,3.59
2018-02-11T00:03:35.719Z,3.58
2018-02-11T00:04:35.700Z,3.58
2018-02-11T00:05:35.653Z,3.49
2018-02-11T00:06:35.627Z,3.55
2018-02-11T00:07:35.601Z,3.53
2018-02-11T00:08:35.593Z,3.50
2018-02-11T00:09:35.553Z,3.50
2018-02-11T00:10:35.530Z,3.50
2018-02-11T00:11:35.503Z,3.53
2018-02-11T00:12:35.482Z,3.52
2018-02-11T00:13:35.460Z,3.58
2018-02-11T00:14:35.432Z,3.58
2018-02-11T00:15:35.399Z,3.58
2018-02-11T00:16:35.377Z,3.59
2018-02-11T00:17:35.355Z,3.53
2018-02-11T00:18:35.495Z,3.58
2018-02-11T00:19:35.326Z,3.49
2018-02-11T00:20:35.284Z,3.52
2018-02-11T00:21:35.259Z,3.53
2018-02-11T00:22:35.227Z,3.56
2018-02-11T00:23:35.201Z,3.56
2018-02-11T00:24:35.195Z,3.61
2018-02-11T00:25:35.155Z,3.53
2018-02-11T00:26:35.128Z,3.58
2018-02-11T00:27:35.101Z,3.64
2018-02-11T00:28:35.077Z,3.53
2018-02-11T00:29:35.056Z,3.61
2018-02-11T00:30:35.025Z,3.50
2018-02-11T00:31:34.998Z,3.58
2018-02-11T00:32:34.974Z,3.53
2018-02-11T00:33:34.955Z,3.52
2018-02-11T00:34:34.929Z,3.55
2018-02-11T00:35:34.903Z,3.59
2018-02-11T00:36:34.877Z,3.59
2018-02-11T00:37:34.862Z,3.50
2018-02-11T00:38:34.829Z,3.52
2018-02-11T00:39:34.804Z,3.53
2018-02-11T00:40:34.786Z,3.45
2018-02-11T00:41:34.754Z,3.49
2018-02-11T00:42:34.727Z,3.49
2018-02-11T00:43:34.704Z,3.55
2018-02-11T00:44:34.675Z,3.46
2018-02-11T00:45:34.654Z,3.50
2018-02-11T00:46:34.625Z,3.55
2018-02-11T00:47:34.611Z,3.58
2018-02-11T00:48:34.575Z,3.55
2018-02-11T00:49:34.553Z,3.53
2018-02-11T00:50:34.524Z,3.55
2018-02-11T00:51:34.500Z,3.48
2018-02-11T00:52:34.476Z,3.52
2018-02-11T00:53:34.452Z,3.46
2018-02-11T00:54:34.423Z,3.56
2018-02-11T00:55:34.409Z,3.55
2018-02-11T00:56:34.373Z,3.55
2018-02-11T00:57:34.355Z,3.58
2018-02-11T00:58:34.331Z,3.55
2018-02-11T00:59:34.303Z,3.41
2018-02-11T01:00:34.320Z,3.53
2018-02-11T01:01:34.253Z,3.56
2018-02-11T01:02:34.224Z,3.56
2018-02-11T01:03:34.201Z,3.50
2018-02-11T01:04:34.184Z,3.56
2018-02-11T01:05:34.155Z,3.58
2018-02-11T01:06:34.123Z,3.55
2018-02-11T01:07:34.106Z,3.48
2018-02-11T01:08:34.075Z,3.50
2018-02-11T01:09:34.051Z,3.61
2018-02-11T01:10:34.026Z,3.50
2018-02-11T01:11:34.000Z,3.50
2018-02-11T01:12:33.971Z,3.61
2018-02-11T01:13:33.949Z,3.56
2018-02-11T01:14:33.930Z,3.55
2018-02-11T01:15:33.899Z,3.56
2018-02-11T01:16:33.876Z,3.56
2018-02-11T01:17:33.856Z,3.56
2018-02-11T01:18:33.829Z,3.61
2018-02-11T01:19:33.796Z,3.55
2018-02-11T01:20:33.771Z,3.50
2018-02-11T01:21:33.747Z,3.55
2018-02-11T01:22:33.804Z,3.49
2018-02-11T01:23:33.699Z,3.50
2018-02-11T01:24:33.672Z,3.50
2018-02-11T01:25:33.680Z,3.53
2018-02-11T01:26:33.620Z,3.56
2018-02-11T01:27:33.597Z,3.53
2018-02-11T01:28:33.573Z,3.52
2018-02-11T01:29:33.547Z,3.50
2018-02-11T01:30:33.519Z,3.48
2018-02-11T01:31:33.496Z,3.41
2018-02-11T01:32:33.469Z,3.43
2018-02-11T01:33:33.446Z,3.43
2018-02-11T01:34:33.422Z,3.36
2018-02-11T01:35:33.396Z,3.41
2018-02-11T01:36:33.436Z,3.40
2018-02-11T01:37:33.346Z,3.29
2018-02-11T01:38:33.318Z,3.34
2018-02-11T01:39:33.297Z,3.24
2018-02-11T01:40:33.268Z,3.27
2018-02-11T01:41:33.245Z,3.36
2018-02-11T01:42:33.222Z,3.33
2018-02-11T01:43:33.201Z,3.33
2018-02-11T01:44:33.171Z,3.31
2018-02-11T01:45:33.144Z,3.40
2018-02-11T01:46:33.117Z,3.36
2018-02-11T01:47:33.102Z,3.36
2018-02-11T01:48:33.074Z,3.30
2018-02-11T01:49:33.044Z,3.33
2018-02-11T01:50:33.020Z,3.30
2018-02-11T01:51:32.996Z,3.34
2018-02-11T01:52:32.966Z,3.30
2018-02-11T01:53:32.944Z,3.29
2018-02-11T01:54:32.916Z,3.30
2018-02-11T01:55:32.894Z,3.27
2018-02-11T01:56:32.875Z,3.27
2018-02-11T01:57:32.843Z,3.27
2018-02-11T01:58:32.960Z,3.24
2018-02-11T01:59:32.796Z,3.18
2018-02-11T02:00:32.776Z,3.19
2018-02-11T02:01:32.809Z,3.24
2018-02-11T02:02:32.715Z,3.24
2018-02-11T02:03:32.691Z,3.15
2018-02-11T02:04:32.718Z,3.11
2018-02-11T02:05:32.643Z,3.11
2018-02-11T02:06:32.615Z,3.06
2018-02-11T02:07:32.598Z,3.05
2018-02-11T02:08:32.565Z,2.95
2018-02-11T02:09:32.542Z,2.97
2018-02-11T02:10:32.518Z,3.03
2018-02-11T02:11:32.489Z,2.98
2018-02-11T02:12:32.464Z,2.98
2018-02-11T02:13:32.444Z,2.97
2018-02-11T02:14:32.413Z,3.00
2018-02-11T02:15:32.391Z,2.94
2018-02-11T02:16:32.363Z,3.00
2018-02-11T02:17:32.348Z,2.88
2018-02-11T02:18:32.310Z,2.97
2018-02-11T02:19:32.285Z,2.83
2018-02-11T02:20:32.272Z,2.94
2018-02-11T02:21:32.235Z,2.82
2018-02-11T02:22:32.212Z,2.83
2018-02-11T02:23:32.182Z,2.75
2018-02-11T02:24:32.159Z,2.70
2018-02-11T02:25:32.132Z,2.73
2018-02-11T02:26:32.130Z,2.82
2018-02-11T02:27:32.081Z,2.82
2018-02-11T02:28:32.054Z,2.75
2018-02-11T02:29:32.039Z,2.68
2018-02-11T02:30:32.005Z,2.73
2018-02-11T02:31:31.979Z,2.75
2018-02-11T02:32:31.954Z,2.75
2018-02-11T02:33:31.928Z,2.68
2018-02-11T02:34:31.987Z,2.68
2018-02-11T02:35:31.891Z,2.64
2018-02-11T02:36:31.857Z,2.70
2018-02-11T02:37:31.852Z,2.65
2018-02-11T02:38:31.799Z,2.64
2018-02-11T02:39:31.775Z,2.62
2018-02-11T02:40:31.751Z,2.68
2018-02-11T02:41:31.725Z,2.68
2018-02-11T02:42:31.698Z,2.65
2018-02-11T02:43:31.669Z,2.59
2018-02-11T02:44:31.656Z,2.65
2018-02-11T02:45:31.626Z,2.57
2018-02-11T02:46:31.592Z,2.68
2018-02-11T02:47:31.566Z,2.52
2018-02-11T02:48:31.543Z,2.62
2018-02-11T02:49:31.516Z,2.59
2018-02-11T02:50:31.489Z,2.61
2018-02-11T02:51:31.476Z,2.58
2018-02-11T02:52:31.439Z,2.51
2018-02-11T02:53:31.412Z,2.57
2018-02-11T02:54:31.389Z,2.58
2018-02-11T02:55:31.364Z,2.69
2018-02-11T02:56:31.343Z,2.57
2018-02-11T02:57:31.309Z,2.65
2018-02-11T02:58:31.287Z,2.62
2018-02-11T02:59:31.256Z,2.68
2018-02-11T03:00:31.232Z,2.76
2018-02-11T03:01:31.204Z,2.73
2018-02-11T03:02:31.308Z,2.62
2018-02-11T03:03:31.155Z,2.76
2018-02-11T03:04:31.126Z,2.75
2018-02-11T03:05:31.105Z,2.70
2018-02-11T03:06:31.086Z,2.69
2018-02-11T03:07:31.048Z,2.75
2018-02-11T03:08:31.023Z,2.73
2018-02-11T03:09:31.005Z,2.73
2018-02-11T03:10:30.973Z,2.73
2018-02-11T03:11:30.943Z,2.69
2018-02-11T03:12:30.918Z,2.68
2018-02-11T03:13:30.893Z,2.85
2018-02-11T03:14:30.868Z,2.83
2018-02-11T03:15:30.938Z,2.75
2018-02-11T03:16:30.817Z,2.82
2018-02-11T03:17:30.800Z,2.83
2018-02-11T03:18:30.786Z,2.88
2018-02-11T03:19:30.737Z,2.94
2018-02-11T03:20:30.712Z,2.91
2018-02-11T03:21:30.736Z,2.93
2018-02-11T03:22:30.658Z,2.88
2018-02-11T03:23:30.631Z,2.93
2018-02-11T03:24:30.608Z,2.85
2018-02-11T03:25:30.581Z,2.91
2018-02-11T03:26:30.570Z,2.90
2018-02-11T03:27:30.531Z,2.91
2018-02-11T03:28:30.503Z,2.85
2018-02-11T03:29:30.636Z,2.95
2018-02-11T03:30:30.451Z,2.97
2018-02-11T03:31:30.423Z,2.95
2018-02-11T03:32:30.520Z,2.98
2018-02-11T03:33:30.379Z,2.95
2018-02-11T03:34:30.352Z,2.97
2018-02-11T03:35:30.375Z,2.93
2018-02-11T03:36:30.292Z,2.93
2018-02-11T03:37:30.290Z,2.97
2018-02-11T03:38:30.293Z,2.91
2018-02-11T03:39:30.215Z,3.03
2018-02-11T03:40:30.190Z,2.93
2018-02-11T03:41:30.164Z,2.80
2018-02-11T03:42:30.139Z,2.94
2018-02-11T03:43:30.111Z,2.95
2018-02-11T03:44:30.084Z,2.90
2018-02-11T03:45:30.060Z,2.95
2018-02-11T03:46:30.033Z,2.94
2018-02-11T03:47:30.010Z,2.85
2018-02-11T03:48:29.990Z,2.87
2018-02-11T03:49:29.953Z,2.88
2018-02-11T03:50:29.927Z,2.85
2018-02-11T03:51:29.900Z,2.72
2018-02-11T03:52:29.878Z,2.77
2018-02-11T03:53:29.847Z,2.87
2018-02-11T03:54:29.822Z,2.83
2018-02-11T03:55:29.798Z,2.87
2018-02-11T03:56:29.772Z,2.85
2018-02-11T03:57:29.757Z,2.80
2018-02-11T03:58:29.718Z,2.95
2018-02-11T03:59:29.691Z,2.98
2018-02-11T04:00:29.723Z,2.97
2018-02-11T04:01:29.650Z,3.06
2018-02-11T04:02:29.618Z,3.09
2018-02-11T04:03:29.598Z,3.09
2018-02-11T04:04:29.560Z,3.06
2018-02-11T04:05:29.540Z,3.12
2018-02-11T04:06:29.508Z,3.16
2018-02-11T04:07:29.485Z,3.16
2018-02-11T04:08:29.458Z,3.15
2018-02-11T04:09:29.434Z,3.22
2018-02-11T04:10:29.409Z,3.22
2018-02-11T04:11:29.391Z,3.26
2018-02-11T04:12:29.356Z,3.31
2018-02-11T04:13:29.327Z,3.16
2018-02-11T04:14:29.305Z,3.22
2018-02-11T04:15:29.276Z,3.30
2018-02-11T04:16:29.250Z,3.33
2018-02-11T04:17:29.225Z,3.41
2018-02-11T04:18:29.196Z,3.34
2018-02-11T04:19:29.205Z,3.46
2018-02-11T04:20:29.150Z,3.30
2018-02-11T04:21:29.121Z,3.41
2018-02-11T04:22:29.094Z,3.37
2018-02-11T04:23:29.068Z,3.36
2018-02-11T04:24:29.044Z,3.41
2018-02-11T04:25:29.018Z,3.37
2018-02-11T04:26:28.996Z,3.33
2018-02-11T04:27:28.964Z,3.34
2018-02-11T04:28:28.939Z,3.31
2018-02-11T04:29:28.912Z,3.33
2018-02-11T04:30:28.886Z,3.26
2018-02-11T04:31:28.864Z,3.29
2018-02-11T04:32:28.836Z,3.33
2018-02-11T04:33:28.819Z,3.33
2018-02-11T04:34:28.785Z,3.22
2018-02-11T04:35:28.757Z,3.29
2018-02-11T04:36:28.738Z,3.22
2018-02-11T04:37:28.712Z,3.13
2018-02-11T04:38:28.682Z,3.15
2018-02-11T04:39:28.711Z,3.21
2018-02-11T04:40:28.637Z,3.13
2018-02-11T04:41:28.603Z,3.16
2018-02-11T04:42:28.576Z,3.12
2018-02-11T04:43:28.550Z,3.15
2018-02-11T04:44:28.525Z,3.19
2018-02-11T04:45:28.507Z,3.16
2018-02-11T04:46:28.475Z,3.16
2018-02-11T04:47:28.451Z,3.22
2018-02-11T04:48:28.422Z,3.19
2018-02-11T04:49:28.399Z,3.19
2018-02-11T04:50:28.372Z,3.22
2018-02-11T04:51:28.349Z,3.22
2018-02-11T04:52:28.319Z,3.24
2018-02-11T04:53:28.297Z,3.34
2018-02-11T04:54:28.301Z,3.33
2018-02-11T04:55:28.245Z,3.34
2018-02-11T04:56:28.218Z,3.36
2018-02-11T04:57:28.196Z,3.34
2018-02-11T04:58:28.169Z,3.36
2018-02-11T04:59:28.140Z,3.36
2018-02-11T05:00:28.118Z,3.36
2018-02-11T05:01:28.091Z,3.26
2018-02-11T05:02:28.062Z,3.26
2018-02-11T05:03:28.049Z,3.27
2018-02-11T05:04:28.014Z,3.40
2018-02-11T05:05:27.988Z,3.37
2018-02-11T05:06:27.960Z,3.56
2018-02-11T05:07:27.938Z,3.37
2018-02-11T05:08:27.908Z,3.43
2018-02-11T05:09:27.889Z,3.46
2018-02-11T05:10:27.866Z,3.40
2018-02-11T05:11:27.841Z,3.36
2018-02-11T05:12:27.914Z,3.37
2018-02-11T05:13:27.781Z,3.40
2018-02-11T05:14:27.778Z,3.46
2018-02-11T05:15:27.807Z,3.41
2018-02-11T05:16:27.707Z,3.45
2018-02-11T05:17:27.679Z,3.36
2018-02-11T05:18:27.661Z,3.43
2018-02-11T05:19:27.628Z,3.34
2018-02-11T05:20:27.605Z,3.36
2018-02-11T05:21:27.589Z,3.30
2018-02-11T05:22:27.550Z,3.41
2018-02-11T05:23:27.546Z,3.37
2018-02-11T05:24:27.502Z,3.45
2018-02-11T05:25:27.475Z,3.37
2018-02-11T05:26:27.448Z,3.34
2018-02-11T05:27:27.425Z,3.40
2018-02-11T05:28:27.398Z,3.40
2018-02-11T05:29:27.372Z,3.46
2018-02-11T05:30:27.347Z,3.43
2018-02-11T05:31:27.320Z,3.34
2018-02-11T05:32:27.294Z,3.34
2018-02-11T05:33:27.277Z,3.33
2018-02-11T05:34:27.337Z,3.43
2018-02-11T05:35:27.218Z,3.29
2018-02-11T05:36:27.192Z,3.33
2018-02-11T05:37:27.218Z,3.24
2018-02-11T05:38:27.138Z,3.34
2018-02-11T05:39:27.116Z,3.30
2018-02-11T05:40:27.093Z,3.22
2018-02-11T05:41:27.063Z,3.34
2018-02-11T05:42:27.038Z,3.31
2018-02-11T05:43:27.017Z,3.33
2018-02-11T05:44:26.985Z,3.33
2018-02-11T05:45:26.965Z,3.29
2018-02-11T05:46:26.940Z,3.31
2018-02-11T05:47:26.913Z,3.19
2018-02-11T05:48:26.884Z,3.12
2018-02-11T05:49:26.856Z,3.21
2018-02-11T05:50:26.831Z,3.06
2018-02-11T05:51:26.806Z,3.08
2018-02-11T05:52:26.781Z,3.01
2018-02-11T05:53:26.758Z,3.06
2018-02-11T05:54:26.731Z,3.03
2018-02-11T05:55:26.711Z,3.06
2018-02-11T05:56:26.682Z,3.01
2018-02-11T05:57:26.689Z,3.01
2018-02-11T05:58:26.625Z,3.06
2018-02-11T05:59:26.601Z,3.03
2018-02-11T06:00:26.576Z,3.13
2018-02-11T06:01:26.550Z,3.13
2018-02-11T06:02:26.523Z,3.16
2018-02-11T06:03:26.498Z,3.16
2018-02-11T06:04:26.579Z,3.19
2018-02-11T06:05:26.449Z,3.21
2018-02-11T06:06:26.432Z,3.21
2018-02-11T06:07:26.450Z,3.21
2018-02-11T06:08:26.372Z,3.19
2018-02-11T06:09:26.344Z,3.19
2018-02-11T06:10:26.319Z,3.31
2018-02-11T06:11:26.291Z,3.19
2018-02-11T06:12:26.270Z,3.21
2018-02-11T06:13:26.241Z,3.24
2018-02-11T06:14:26.213Z,3.29
2018-02-11T06:15:26.193Z,3.30
2018-02-11T06:16:26.164Z,3.27
2018-02-11T06:17:26.140Z,3.27
2018-02-11T06:18:26.112Z,3.37
2018-02-11T06:19:26.093Z,3.37
2018-02-11T06:20:26.063Z,3.31
2018-02-11T06:21:26.035Z,3.40
2018-02-11T06:22:26.010Z,3.41
2018-02-11T06:23:25.982Z,3.36
2018-02-11T06:24:25.957Z,3.45
2018-02-11T06:25:25.931Z,3.40
2018-02-11T06:26:25.984Z,3.30
2018-02-11T06:27:25.878Z,3.40
2018-02-11T06:28:25.857Z,3.36
2018-02-11T06:29:25.852Z,3.40
2018-02-11T06:30:25.814Z,3.41
2018-02-11T06:31:25.787Z,3.43
2018-02-11T06:32:25.808Z,3.43
2018-02-11T06:33:25.730Z,3.37
2018-02-11T06:34:25.701Z,3.49
2018-02-11T06:35:25.676Z,3.48
2018-02-11T06:36:25.647Z,3.37
2018-02-11T06:37:25.631Z,3.46
2018-02-11T06:38:25.599Z,3.37
2018-02-11T06:39:25.576Z,3.41
2018-02-11T06:40:25.547Z,3.36
2018-02-11T06:41:25.541Z,3.37
2018-02-11T06:42:25.494Z,3.41
2018-02-11T06:43:25.468Z,3.52
2018-02-11T06:44:25.445Z,3.56
2018-02-11T06:45:25.417Z,3.56
2018-02-11T06:46:25.389Z,3.59
2018-02-11T06:47:25.371Z,3.56
2018-02-11T06:48:25.344Z,3.58
2018-02-11T06:49:25.315Z,3.52
2018-02-11T06:50:25.287Z,3.56
2018-02-11T06:51:25.261Z,3.53
2018-02-11T06:52:25.235Z,3.58
2018-02-11T06:53:25.214Z,3.55
2018-02-11T06:54:25.187Z,3.64
2018-02-11T06:55:25.158Z,3.56
2018-02-11T06:56:25.133Z,3.50
2018-02-11T06:57:25.108Z,3.52
2018-02-11T06:58:25.082Z,3.56
2018-02-11T06:59:25.054Z,3.52
2018-02-11T07:00:25.033Z,3.53
2018-02-11T07:01:25.004Z,3.58
2018-02-11T07:02:24.983Z,3.53
2018-02-11T07:03:24.962Z,3.56
2018-02-11T07:04:24.927Z,3.53
2018-02-11T07:05:24.906Z,3.52
2018-02-11T07:06:24.874Z,3.56
2018-02-11T07:07:24.869Z,3.53
2018-02-11T07:08:24.838Z,3.50
2018-02-11T07:09:24.803Z,3.53
2018-02-11T07:10:24.773Z,3.40
2018-02-11T07:11:24.746Z,3.40
2018-02-11T07:12:24.720Z,3.46
2018-02-11T07:13:24.698Z,3.41
2018-02-11T07:14:24.671Z,3.48
2018-02-11T07:15:24.643Z,3.45
2018-02-11T07:16:24.633Z,3.41
2018-02-11T07:17:24.593Z,3.45
2018-02-11T07:18:24.690Z,3.43
2018-02-11T07:19:24.543Z,3.43
2018-02-11T07:20:24.520Z,3.43
2018-02-11T07:21:24.527Z,3.41
2018-02-11T07:22:24.468Z,3.34
2018-02-11T07:23:24.444Z,3.34
2018-02-11T07:24:24.475Z,3.45
2018-02-11T07:25:24.388Z,3.43
2018-02-11T07:26:24.361Z,3.40
2018-02-11T07:27:24.339Z,3.45
2018-02-11T07:28:24.314Z,3.40
2018-02-11T07:29:24.289Z,3.45
2018-02-11T07:30:24.268Z,3.48
2018-02-11T07:31:24.234Z,3.45
2018-02-11T07:32:24.208Z,3.41
2018-02-11T07:33:24.183Z,3.40
2018-02-11T07:34:24.157Z,3.40
2018-02-11T07:35:24.136Z,3.48
2018-02-11T07:36:24.108Z,3.43
2018-02-11T07:37:24.080Z,3.45
2018-02-11T07:38:24.067Z,3.41
2018-02-11T07:39:24.034Z,3.50
2018-02-11T07:40:24.008Z,3.52
2018-02-11T07:41:23.980Z,3.55
2018-02-11T07:42:23.957Z,3.50
2018-02-11T07:43:24.041Z,3.50
2018-02-11T07:44:23.912Z,3.48
2018-02-11T07:45:23.877Z,3.56
2018-02-11T07:46:23.868Z,3.49
2018-02-11T07:47:23.826Z,3.52
2018-02-11T07:48:23.801Z,3.56
2018-02-11T07:49:23.779Z,3.55
2018-02-11T07:50:23.751Z,3.52
2018-02-11T07:51:23.725Z,3.52
2018-02-11T07:52:23.706Z,3.50
2018-02-11T07:53:23.677Z,3.53
2018-02-11T07:54:23.658Z,3.59
2018-02-11T07:55:23.625Z,3.55
2018-02-11T07:56:23.600Z,3.56
2018-02-11T07:57:23.616Z,3.58
2018-02-11T07:58:23.550Z,3.66
2018-02-11T07:59:23.525Z,3.61
2018-02-11T08:00:23.511Z,3.68
2018-02-11T08:01:23.475Z,3.66
2018-02-11T08:02:23.446Z,3.70
2018-02-11T08:03:23.424Z,3.70
2018-02-11T08:04:23.399Z,3.78
2018-02-11T08:05:23.395Z,3.82
2018-02-11T08:06:23.350Z,3.81
2018-02-11T08:07:23.329Z,3.92
2018-02-11T08:08:23.296Z,3.84
2018-02-11T08:09:23.276Z,3.85
2018-02-11T08:10:23.260Z,3.91
2018-02-11T08:11:23.222Z,3.81
2018-02-11T08:12:23.201Z,3.84
2018-02-11T08:13:23.175Z,3.96
2018-02-11T08:14:23.149Z,3.96
2018-02-11T08:15:23.139Z,4.07
2018-02-11T08:16:23.096Z,3.95
2018-02-11T08:17:23.072Z,3.94
2018-02-11T08:18:23.053Z,3.94
2018-02-11T08:19:23.049Z,3.89
2018-02-11T08:20:22.997Z,3.94
2018-02-11T08:21:22.972Z,3.91
2018-02-11T08:22:23.024Z,4.02
2018-02-11T08:23:22.929Z,4.03
2018-02-11T08:24:22.896Z,3.99
2018-02-11T08:25:22.873Z,4.00
2018-02-11T08:26:22.846Z,4.04
2018-02-11T08:27:22.821Z,4.03
2018-02-11T08:28:22.806Z,3.99
2018-02-11T08:29:22.778Z,4.06
2018-02-11T08:30:22.749Z,4.09
2018-02-11T08:31:22.722Z,4.10
2018-02-11T08:32:22.703Z,4.06
2018-02-11T08:33:22.673Z,4.04
2018-02-11T08:34:22.646Z,4.07
2018-02-11T08:35:22.623Z,4.02
2018-02-11T08:36:22.600Z,4.09
2018-02-11T08:37:22.573Z,4.07
2018-02-11T08:38:22.550Z,4.04
2018-02-11T08:39:22.521Z,4.07
2018-02-11T08:40:22.500Z,4.03
2018-02-11T08:41:22.607Z,4.09
2018-02-11T08:42:22.449Z,4.06
2018-02-11T08:43:22.432Z,4.04
2018-02-11T08:44:22.501Z,4.06
2018-02-11T08:45:22.374Z,4.10
2018-02-11T08:46:22.349Z,4.07
2018-02-11T08:47:22.323Z,4.06
2018-02-11T08:48:22.299Z,4.09
2018-02-11T08:49:22.278Z,4.06
2018-02-11T08:50:22.253Z,4.07
2018-02-11T08:51:22.223Z,4.12
2018-02-11T08:52:22.217Z,4.09
2018-02-11T08:53:22.183Z,4.16
2018-02-11T08:54:22.148Z,4.20
2018-02-11T08:55:22.129Z,4.16
2018-02-11T08:56:22.100Z,4.20
2018-02-11T08:57:22.082Z,4.21
2018-02-11T08:58:22.050Z,4.14
2018-02-11T08:59:22.039Z,4.18
2018-02-11T09:00:22.002Z,4.22
2018-02-11T09:01:21.985Z,4.18
2018-02-11T09:02:21.956Z,4.20
2018-02-11T09:03:21.931Z,4.21
2018-02-11T09:04:21.901Z,4.24
2018-02-11T09:05:21.879Z,4.24
2018-02-11T09:06:21.850Z,4.27
2018-02-11T09:07:21.838Z,4.24
2018-02-11T09:08:21.805Z,4.32
2018-02-11T09:09:21.783Z,4.30
2018-02-11T09:10:21.755Z,4.34
2018-02-11T09:11:21.737Z,4.28
2018-02-11T09:12:21.707Z,4.34
2018-02-11T09:13:21.680Z,4.38
2018-02-11T09:14:21.672Z,4.38
2018-02-11T09:15:21.636Z,4.40
2018-02-11T09:16:21.616Z,4.36
2018-02-11T09:17:21.638Z,4.42
2018-02-11T09:18:21.559Z,4.32
2018-02-11T09:19:21.551Z,4.38
2018-02-11T09:20:21.540Z,4.45
2018-02-11T09:21:21.484Z,4.53
2018-02-11T09:22:21.467Z,4.49
2018-02-11T09:23:21.437Z,4.45
2018-02-11T09:24:21.413Z,4.46
2018-02-11T09:25:21.399Z,4.45
2018-02-11T09:26:21.368Z,4.53
2018-02-11T09:27:21.350Z,4.57
2018-02-11T09:28:21.321Z,4.60
2018-02-11T09:29:21.297Z,4.56
2018-02-11T09:30:21.274Z,4.60
2018-02-11T09:31:21.244Z,4.66
2018-02-11T09:32:21.219Z,4.74
2018-02-11T09:33:21.204Z,4.79
2018-02-11T09:34:21.167Z,4.70
2018-02-11T09:35:21.153Z,4.64
2018-02-11T09:36:21.123Z,4.60
2018-02-11T09:37:21.098Z,4.58
2018-02-11T09:38:21.072Z,4.70
2018-02-11T09:39:21.051Z,4.60
2018-02-11T09:40:21.024Z,4.60
2018-02-11T09:41:21.002Z,4.71
2018-02-11T09:42:20.977Z,4.84
2018-02-11T09:43:20.956Z,4.83
2018-02-11T09:44:20.933Z,4.82
2018-02-11T09:45:20.907Z,4.79
2018-02-11T09:46:20.880Z,4.74
2018-02-11T09:47:20.859Z,4.71
2018-02-11T09:48:20.839Z,4.74
2018-02-11T09:49:20.814Z,4.70
2018-02-11T09:50:20.830Z,4.74
2018-02-11T09:51:20.763Z,4.76
2018-02-11T09:52:20.746Z,4.82
2018-02-11T09:53:20.770Z,4.79
2018-02-11T09:54:20.692Z,4.86
2018-02-11T09:55:20.674Z,4.86
2018-02-11T09:56:20.647Z,4.89
2018-02-11T09:57:20.661Z,4.92
2018-02-11T09:58:20.599Z,5.00
2018-02-11T09:59:20.579Z,5.01
2018-02-11T10:00:20.554Z,5.01
2018-02-11T10:01:20.529Z,5.07
2018-02-11T10:02:20.505Z,5.04
2018-02-11T10:03:20.481Z,5.02
2018-02-11T10:04:20.454Z,5.02
2018-02-11T10:05:20.431Z,4.98
2018-02-11T10:06:20.409Z,5.07
2018-02-11T10:07:20.389Z,5.04
2018-02-11T10:08:20.375Z,5.08
2018-02-11T10:09:20.359Z,5.08
2018-02-11T10:10:20.321Z,5.13
2018-02-11T10:11:20.290Z,5.20
2018-02-11T10:12:20.269Z,5.19
2018-02-11T10:13:20.246Z,5.29
2018-02-11T10:14:20.221Z,5.25
2018-02-11T10:15:20.296Z,5.29
2018-02-11T10:16:20.185Z,5.38
2018-02-11T10:17:20.150Z,5.28
2018-02-11T10:18:20.204Z,5.40
2018-02-11T10:19:20.115Z,5.33
2018-02-11T10:20:20.090Z,5.44
2018-02-11T10:21:20.060Z,5.51
2018-02-11T10:22:20.037Z,5.40
2018-02-11T10:23:20.018Z,5.49
2018-02-11T10:24:19.993Z,5.51
2018-02-11T10:25:19.976Z,5.40
2018-02-11T10:26:19.946Z,5.55
2018-02-11T10:27:19.942Z,5.59
2018-02-11T10:28:19.917Z,5.51
2018-02-11T10:29:19.879Z,5.56
2018-02-11T10:30:19.855Z,5.54
2018-02-11T10:31:19.830Z,5.54
2018-02-11T10:32:19.817Z,5.54
2018-02-11T10:33:19.786Z,5.62
2018-02-11T10:34:19.779Z,5.73
2018-02-11T10:35:19.751Z,5.65
2018-02-11T10:36:19.728Z,5.76
2018-02-11T10:37:19.712Z,5.72
2018-02-11T10:38:19.684Z,5.76
2018-02-11T10:39:19.647Z,5.77
2018-02-11T10:40:19.629Z,5.83
2018-02-11T10:41:19.606Z,5.81
2018-02-11T10:42:19.580Z,5.90
2018-02-11T10:43:19.560Z,6.07
2018-02-11T10:44:19.536Z,6.06
2018-02-11T10:45:19.514Z,6.16
2018-02-11T10:46:19.503Z,6.09
2018-02-11T10:47:19.469Z,6.19
2018-02-11T10:48:19.466Z,6.34
2018-02-11T10:49:19.431Z,6.28
2018-02-11T10:50:19.412Z,6.28
2018-02-11T10:51:19.422Z,6.35
2018-02-11T10:52:19.365Z,6.35
2018-02-11T10:53:19.350Z,6.39
2018-02-11T10:54:19.322Z,6.31
2018-02-11T10:55:19.303Z,6.32
2018-02-11T10:56:19.269Z,6.49
2018-02-11T10:57:19.259Z,6.49
2018-02-11T10:58:19.237Z,6.49
2018-02-11T10:59:19.205Z,6.39
2018-02-11T11:00:19.185Z,6.65
2018-02-11T11:01:19.157Z,6.64
2018-02-11T11:02:19.137Z,6.80
2018-02-11T11:03:19.115Z,6.85
2018-02-11T11:04:19.101Z,6.80
2018-02-11T11:05:19.096Z,6.80
2018-02-11T11:06:19.046Z,6.80
2018-02-11T11:07:19.032Z,6.85
2018-02-11T11:08:19.009Z,6.86
2018-02-11T11:09:18.994Z,6.92
2018-02-11T11:10:18.990Z,7.01
2018-02-11T11:11:18.948Z,7.11
2018-02-11T11:12:18.920Z,7.13
2018-02-11T11:13:18.951Z,7.29
2018-02-11T11:14:18.877Z,7.43
2018-02-11T11:15:18.862Z,7.47
2018-02-11T11:16:18.839Z,7.64
2018-02-11T11:17:18.814Z,8.61
2018-02-11T11:18:18.941Z,9.05
2018-02-11T11:19:18.771Z,9.82
2018-02-11T11:20:18.749Z,10.45
2018-02-11T11:21:18.784Z,10.76
2018-02-11T11:22:18.729Z,10.84
2018-02-11T11:23:18.699Z,11.05
2018-02-11T11:24:18.722Z,10.82
2018-02-11T11:25:18.647Z,11.02
2018-02-11T11:26:18.656Z,11.01
2018-02-11T11:27:18.608Z,10.34
2018-02-11T11:28:18.595Z,10.12
2018-02-11T11:29:18.569Z,9.95
2018-02-11T11:30:18.548Z,9.84
2018-02-11T11:31:18.528Z,9.58
2018-02-11T11:32:18.519Z,9.33
2018-02-11T11:33:18.490Z,9.13
2018-02-11T11:34:18.479Z,8.63
2018-02-11T11:35:18.462Z,8.61
2018-02-11T11:36:18.433Z,8.72
2018-02-11T11:37:18.417Z,8.69
2018-02-11T11:38:18.402Z,8.53
2018-02-11T11:39:18.386Z,8.39
2018-02-11T11:40:18.383Z,8.38
2018-02-11T11:41:18.336Z,8.34
2018-02-11T11:42:18.320Z,8.27
2018-02-11T11:43:18.314Z,8.24
2018-02-11T11:44:18.276Z,8.16
2018-02-11T11:45:18.256Z,8.08
2018-02-11T11:46:18.238Z,8.11
2018-02-11T11:47:18.217Z,8.03
2018-02-11T11:48:18.195Z,8.05
2018-02-11T11:49:18.182Z,7.93
2018-02-11T11:50:18.156Z,7.95
2018-02-11T11:51:18.135Z,7.95
2018-02-11T11:52:18.116Z,8.02
2018-02-11T11:53:18.107Z,8.08
2018-02-11T11:54:18.103Z,8.14
2018-02-11T11:55:18.064Z,8.18
2018-02-11T11:56:18.038Z,8.17
2018-02-11T11:57:18.017Z,8.16
2018-02-11T11:58:18.001Z,8.27
2018-02-11T11:59:17.979Z,8.24
2018-02-11T12:00:17.956Z,8.18
2018-02-11T12:01:17.941Z,8.17
2018-02-11T12:02:17.937Z,8.23
2018-02-11T12:03:17.900Z,8.24
2018-02-11T12:04:17.880Z,8.09
2018-02-11T12:05:17.860Z,8.08
2018-02-11T12:06:17.845Z,8.06
2018-02-11T12:07:17.817Z,8.14
2018-02-11T12:08:17.798Z,8.08
2018-02-11T12:09:17.777Z,8.08
2018-02-11T12:10:17.801Z,8.17
2018-02-11T12:11:17.738Z,8.11
2018-02-11T12:12:17.725Z,8.11
2018-02-11T12:13:17.707Z,8.18
2018-02-11T12:14:17.677Z,8.09
2018-02-11T12:15:17.657Z,8.27
2018-02-11T12:16:17.666Z,8.46
2018-02-11T12:17:17.631Z,8.79
2018-02-11T12:18:17.597Z,8.99
2018-02-11T12:19:17.582Z,8.69
2018-02-11T12:20:17.569Z,9.16
2018-02-11T12:21:17.549Z,9.02
2018-02-11T12:22:17.522Z,9.09
2018-02-11T12:23:17.511Z,9.05
2018-02-11T12:24:17.484Z,9.02
2018-02-11T12:25:17.475Z,9.24
2018-02-11T12:26:17.449Z,9.12
2018-02-11T12:27:17.423Z,9.18
2018-02-11T12:28:17.400Z,9.11
2018-02-11T12:29:17.380Z,9.02
2018-02-11T12:30:17.356Z,8.99
2018-02-11T12:31:17.341Z,8.69
2018-02-11T12:32:17.470Z,8.71
2018-02-11T12:33:17.305Z,8.93
2018-02-11T12:34:17.285Z,9.18
2018-02-11T12:35:17.266Z,9.02
2018-02-11T12:36:17.250Z,9.08
2018-02-11T12:37:17.226Z,9.03
2018-02-11T12:38:17.210Z,8.82
2018-02-11T12:39:17.175Z,8.66
2018-02-11T12:40:17.153Z,8.45
2018-02-11T12:41:17.130Z,8.46
2018-02-11T12:42:17.129Z,8.39
2018-02-11T12:43:17.095Z,8.52
2018-02-11T12:44:17.078Z,8.59
2018-02-11T12:45:17.051Z,8.64
2018-02-11T12:46:17.031Z,8.69
2018-02-11T12:47:17.018Z,8.45
2018-02-11T12:48:16.988Z,8.39
2018-02-11T12:49:16.968Z,8.27
2018-02-11T12:50:16.951Z,8.20
2018-02-11T12:51:16.927Z,8.21
2018-02-11T12:52:16.908Z,8.18
2018-02-11T12:53:16.888Z,8.11
2018-02-11T12:54:16.864Z,8.05
2018-02-11T12:55:16.843Z,8.08
2018-02-11T12:56:16.829Z,8.05
2018-02-11T12:57:16.803Z,8.13
2018-02-11T12:58:16.780Z,8.03
2018-02-11T12:59:16.768Z,8.03
2018-02-11T13:00:16.742Z,8.13
2018-02-11T13:01:16.719Z,8.16
2018-02-11T13:02:16.795Z,8.18
2018-02-11T13:03:16.681Z,8.08
2018-02-11T13:04:16.661Z,8.16
2018-02-11T13:05:16.658Z,8.24
2018-02-11T13:06:16.616Z,8.17
2018-02-11T13:07:16.619Z,8.14
2018-02-11T13:08:16.638Z,8.20
2018-02-11T13:09:16.565Z,8.02
2018-02-11T13:10:16.546Z,8.02
2018-02-11T13:11:16.519Z,7.99
2018-02-11T13:12:16.489Z,7.96
2018-02-11T13:13:16.471Z,7.91
2018-02-11T13:14:16.451Z,7.81
2018-02-11T13:15:16.461Z,7.85
2018-02-11T13:16:16.412Z,7.88
2018-02-11T13:17:16.388Z,7.77
2018-02-11T13:18:16.375Z,7.85